Time;durP1;ratioP1;P1;durP2;ratioP2;P2;SDS_P1;SDS_P2;PMS_P1;PMS_P2;Temp;Humidity;BMP_temperature;BMP_pressure;BME280_temperature;BME280_humidity;BME280_pressure;Samples;Min_cycle;Max_cycle;Signal;HPM_P1;HPM_P2
2023/06/27 00:01:45;;;;;;;2.20;0.88;;;15.70;87.40;;;;;;5066885;28;20089;-70
2023/06/27 00:04:10;;;;;;;2.00;0.80;;;15.70;87.60;;;;;;5070013;28;20040;-70
2023/06/27 00:06:41;;;;;;;2.08;0.80;;;15.70;87.90;;;;;;5066656;28;20040;-70
2023/06/27 00:09:10;;;;;;;2.65;0.80;;;15.60;88.30;;;;;;5077799;28;20136;-70
2023/06/27 00:11:39;;;;;;;2.22;0.90;;;15.60;88.90;;;;;;5052304;28;20032;-70
2023/06/27 00:14:07;;;;;;;2.85;1.10;;;15.60;88.80;;;;;;5070786;28;20032;-70
2023/06/27 00:16:33;;;;;;;7.30;1.40;;;15.60;88.90;;;;;;5070324;28;20036;-70
2023/06/27 00:19:03;;;;;;;1.50;0.80;;;15.60;89.10;;;;;;5052739;28;20032;-70
2023/06/27 00:21:33;;;;;;;3.63;0.80;;;15.60;89.20;;;;;;5067197;28;20043;-70
2023/06/27 00:23:59;;;;;;;4.65;1.15;;;15.60;89.30;;;;;;5079237;28;20209;-71
2023/06/27 00:26:25;;;;;;;3.53;0.90;;;15.60;89.50;;;;;;5068927;28;20083;-70
2023/06/27 00:28:51;;;;;;;4.57;1.20;;;15.60;89.80;;;;;;5068105;28;20063;-70
2023/06/27 00:31:17;;;;;;;3.63;1.00;;;15.50;90.00;;;;;;5050085;28;20072;-70
2023/06/27 00:33:42;;;;;;;4.97;0.90;;;15.50;90.00;;;;;;5065338;28;20131;-71
2023/06/27 00:36:09;;;;;;;2.30;0.88;;;15.50;90.10;;;;;;5065784;28;20027;-70
2023/06/27 00:38:35;;;;;;;2.42;1.33;;;15.40;90.30;;;;;;5067588;28;20155;-70
2023/06/27 00:41:01;;;;;;;2.17;1.00;;;15.50;90.50;;;;;;5073599;28;20131;-70
2023/06/27 00:43:29;;;;;;;3.55;1.08;;;15.40;90.60;;;;;;5066894;28;20388;-70
2023/06/27 00:45:56;;;;;;;3.13;1.08;;;15.40;90.70;;;;;;5078195;28;20512;-70
2023/06/27 00:48:21;;;;;;;7.15;1.50;;;15.40;90.80;;;;;;5068933;28;20516;-71
2023/06/27 00:50:48;;;;;;;6.22;1.40;;;15.40;90.90;;;;;;5069775;28;20048;-71
2023/06/27 00:53:14;;;;;;;3.13;1.00;;;15.50;90.90;;;;;;5045540;28;20036;-70
2023/06/27 00:55:41;;;;;;;3.80;1.30;;;15.40;90.90;;;;;;5065556;28;20044;-70
2023/06/27 00:58:08;;;;;;;3.45;1.05;;;15.40;91.10;;;;;;5072213;28;20405;-71
2023/06/27 01:00:34;;;;;;;5.97;1.02;;;15.40;91.10;;;;;;5067114;28;20051;-70
2023/06/27 01:02:59;;;;;;;3.13;1.10;;;15.40;91.10;;;;;;5059159;28;20410;-70
2023/06/27 01:05:25;;;;;;;2.88;1.13;;;15.40;91.20;;;;;;5071585;28;20116;-71
2023/06/27 01:08:01;;;;;;;4.13;1.35;;;15.30;91.30;;;;;;5047575;28;20039;-70
2023/06/27 01:10:38;;;;;;;3.13;0.75;;;15.30;91.50;;;;;;5077324;28;20700;-70
2023/06/27 01:13:29;;;;;;;5.20;1.10;;;15.30;91.60;;;;;;5075867;28;20137;-70
2023/06/27 01:15:57;;;;;;;2.05;0.98;;;15.30;92.00;;;;;;5067194;28;20044;-70
2023/06/27 01:18:25;;;;;;;1.75;0.90;;;15.20;91.60;;;;;;5067770;28;20055;-71
2023/06/27 01:20:52;;;;;;;2.40;1.00;;;15.20;91.70;;;;;;5060000;28;20131;-70
2023/06/27 01:23:29;;;;;;;2.83;1.30;;;15.10;91.70;;;;;;5031591;28;20047;-70
2023/06/27 01:26:03;;;;;;;3.25;1.13;;;15.20;91.80;;;;;;5068643;28;20056;-70
2023/06/27 01:28:30;;;;;;;1.83;0.90;;;15.10;92.00;;;;;;5065800;28;20130;-70
2023/06/27 01:30:56;;;;;;;2.85;1.20;;;15.20;92.00;;;;;;5067015;28;20040;-70
2023/06/27 01:33:27;;;;;;;2.50;0.82;;;15.20;91.90;;;;;;5048353;28;20038;-70
2023/06/27 01:36:18;;;;;;;2.33;1.05;;;15.20;92.00;;;;;;5065258;28;20055;-70
2023/06/27 01:38:50;;;;;;;3.40;1.20;;;15.10;92.20;;;;;;5060900;28;20033;-70
2023/06/27 01:41:18;;;;;;;1.85;1.05;;;15.10;92.20;;;;;;5066763;28;20055;-70
2023/06/27 01:43:45;;;;;;;2.25;1.00;;;15.20;92.20;;;;;;5059246;28;20442;-72
2023/06/27 01:46:11;;;;;;;4.10;1.10;;;15.10;92.20;;;;;;5071410;28;20036;-71
2023/06/27 01:48:38;;;;;;;2.30;0.90;;;15.10;92.20;;;;;;5063889;28;20462;-71
2023/06/27 01:51:08;;;;;;;2.90;1.00;;;15.10;92.50;;;;;;5051976;28;20048;-71
2023/06/27 01:53:35;;;;;;;2.40;1.00;;;15.10;92.40;;;;;;5047624;28;20044;-71
2023/06/27 01:56:02;;;;;;;4.45;0.90;;;15.10;92.40;;;;;;5074244;28;21424;-71
2023/06/27 01:58:27;;;;;;;2.00;1.25;;;15.10;92.40;;;;;;5078164;28;20029;-71
2023/06/27 02:00:53;;;;;;;2.15;0.93;;;15.10;92.50;;;;;;5070542;28;20484;-72
2023/06/27 02:03:18;;;;;;;2.33;1.23;;;15.10;92.60;;;;;;5072680;28;20063;-71
2023/06/27 02:05:44;;;;;;;3.25;1.30;;;15.10;92.60;;;;;;5072923;28;20044;-69
2023/06/27 02:08:10;;;;;;;4.28;1.27;;;15.10;92.70;;;;;;5073186;28;20394;-69
2023/06/27 02:10:35;;;;;;;1.45;0.90;;;15.10;92.70;;;;;;5064989;28;20048;-69
2023/06/27 02:13:03;;;;;;;2.17;0.85;;;15.10;92.60;;;;;;5082186;28;20043;-69
2023/06/27 02:15:29;;;;;;;2.58;1.17;;;15.00;92.80;;;;;;5073236;28;20040;-69
2023/06/27 02:17:55;;;;;;;2.45;1.02;;;15.00;93.10;;;;;;5072409;28;20028;-69
2023/06/27 02:20:20;;;;;;;2.88;0.90;;;15.00;92.80;;;;;;5069949;28;20024;-69
2023/06/27 02:22:46;;;;;;;3.67;1.35;;;15.00;92.90;;;;;;5073410;28;20078;-70
2023/06/27 02:25:11;;;;;;;2.47;1.13;;;15.00;92.90;;;;;;5071938;28;20056;-69
2023/06/27 02:27:37;;;;;;;2.53;1.20;;;15.00;93.00;;;;;;5067717;28;20051;-69
2023/06/27 02:30:03;;;;;;;1.80;0.85;;;15.00;93.10;;;;;;5054390;28;20032;-69
2023/06/27 02:32:28;;;;;;;4.18;1.10;;;14.90;93.10;;;;;;5054045;28;20106;-69
2023/06/27 02:34:54;;;;;;;2.35;1.00;;;15.00;93.20;;;;;;5069177;28;20033;-70
2023/06/27 02:37:20;;;;;;;1.40;0.82;;;15.00;93.20;;;;;;5071193;28;20032;-70
2023/06/27 02:39:46;;;;;;;2.30;0.88;;;15.00;93.30;;;;;;5055091;28;20453;-69
2023/06/27 02:42:11;;;;;;;2.17;0.90;;;14.90;93.30;;;;;;5070297;28;20044;-70
2023/06/27 02:44:37;;;;;;;2.30;1.35;;;14.90;93.40;;;;;;5079783;28;20396;-70
2023/06/27 02:47:03;;;;;;;3.33;1.15;;;15.00;93.50;;;;;;5073049;28;20044;-70
2023/06/27 02:49:28;;;;;;;2.55;1.10;;;14.90;93.40;;;;;;5073608;28;20032;-70
2023/06/27 02:51:54;;;;;;;2.92;1.25;;;15.00;93.50;;;;;;5070043;28;20041;-70
2023/06/27 02:54:19;;;;;;;2.03;1.00;;;15.00;93.50;;;;;;5071451;28;20140;-70
2023/06/27 02:56:45;;;;;;;2.83;1.17;;;15.00;93.50;;;;;;5076690;28;20090;-70
2023/06/27 02:59:10;;;;;;;2.58;1.10;;;15.00;93.50;;;;;;5080059;28;20135;-69
2023/06/27 03:01:36;;;;;;;1.92;0.98;;;15.00;93.50;;;;;;5072922;28;20110;-70
2023/06/27 03:04:02;;;;;;;2.08;1.00;;;14.90;93.60;;;;;;5071300;28;20036;-69
2023/06/27 03:06:27;;;;;;;3.70;1.05;;;15.00;93.60;;;;;;5068035;28;20075;-69
2023/06/27 03:08:54;;;;;;;5.07;1.30;;;14.90;93.60;;;;;;5073003;28;20409;-69
2023/06/27 03:11:20;;;;;;;6.97;1.30;;;14.90;93.60;;;;;;5079502;28;20048;-69
2023/06/27 03:13:45;;;;;;;2.13;1.00;;;14.90;93.70;;;;;;5078137;28;20036;-69
2023/06/27 03:16:11;;;;;;;1.60;1.05;;;14.90;93.80;;;;;;5071993;28;20032;-70
2023/06/27 03:18:36;;;;;;;2.88;1.00;;;14.80;93.80;;;;;;5070292;28;20032;-70
2023/06/27 03:21:02;;;;;;;2.85;1.00;;;14.90;93.90;;;;;;5067374;28;20032;-69
2023/06/27 03:23:28;;;;;;;2.10;0.90;;;14.90;93.90;;;;;;5070069;28;20120;-70
2023/06/27 03:25:55;;;;;;;2.50;1.00;;;14.80;94.00;;;;;;5079693;28;20043;-70
2023/06/27 03:28:20;;;;;;;3.40;1.10;;;14.80;94.20;;;;;;5064942;28;20032;-69
2023/06/27 03:30:46;;;;;;;3.65;1.15;;;14.80;94.30;;;;;;5066245;28;20042;-70
2023/06/27 03:33:12;;;;;;;5.28;1.00;;;14.80;94.30;;;;;;5068255;28;20075;-70
2023/06/27 03:35:37;;;;;;;3.63;1.02;;;14.80;94.40;;;;;;5066972;28;20032;-69
2023/06/27 03:38:03;;;;;;;2.78;1.10;;;14.80;94.40;;;;;;5075102;28;20036;-69
2023/06/27 03:40:28;;;;;;;3.65;0.98;;;14.70;94.40;;;;;;5077144;28;20036;-69
2023/06/27 03:42:56;;;;;;;2.78;1.33;;;14.70;94.50;;;;;;5069816;28;20480;-69
2023/06/27 03:45:21;;;;;;;2.88;1.63;;;14.70;94.70;;;;;;5047264;28;20067;-70
2023/06/27 03:47:47;;;;;;;2.17;1.02;;;14.70;94.80;;;;;;5068125;28;20040;-70
2023/06/27 03:50:13;;;;;;;4.20;1.13;;;14.70;94.90;;;;;;5070844;28;20048;-70
2023/06/27 03:52:38;;;;;;;2.75;1.35;;;14.70;95.00;;;;;;5065832;28;20055;-70
2023/06/27 03:55:07;;;;;;;3.55;1.38;;;14.70;95.10;;;;;;5069164;28;20098;-70
2023/06/27 03:57:33;;;;;;;3.08;1.65;;;14.70;95.20;;;;;;5069352;28;20044;-70
2023/06/27 03:59:59;;;;;;;3.38;1.23;;;14.80;95.40;;;;;;5063175;28;20036;-70
2023/06/27 04:02:24;;;;;;;2.95;1.40;;;14.80;95.40;;;;;;5062065;28;20050;-70
2023/06/27 04:04:50;;;;;;;4.68;1.52;;;14.80;95.50;;;;;;5079379;28;20153;-70
2023/06/27 04:07:16;;;;;;;7.47;1.70;;;14.80;95.60;;;;;;5070506;28;20127;-70
2023/06/27 04:09:41;;;;;;;3.40;1.60;;;14.80;95.90;;;;;;5066885;28;20525;-70
2023/06/27 04:12:08;;;;;;;3.00;1.25;;;14.80;95.70;;;;;;5072025;28;20135;-70
2023/06/27 04:14:34;;;;;;;4.00;1.55;;;14.80;95.90;;;;;;5057141;28;20040;-70
2023/06/27 04:17:00;;;;;;;5.80;1.40;;;14.80;96.30;;;;;;5043668;28;20051;-70
2023/06/27 04:19:25;;;;;;;3.83;1.60;;;14.90;96.20;;;;;;5063900;28;20044;-70
2023/06/27 04:21:51;;;;;;;4.70;1.40;;;14.90;96.20;;;;;;5066768;28;20043;-70
2023/06/27 04:24:17;;;;;;;3.38;1.48;;;15.00;96.30;;;;;;5070423;28;20042;-70
2023/06/27 04:26:42;;;;;;;4.03;1.58;;;15.00;96.30;;;;;;5069281;28;20040;-70
2023/06/27 04:29:08;;;;;;;3.80;1.70;;;15.00;96.40;;;;;;5070910;28;20055;-70
2023/06/27 04:31:34;;;;;;;4.53;1.90;;;15.00;96.40;;;;;;5067979;28;20114;-70
2023/06/27 04:34:00;;;;;;;3.88;1.50;;;15.10;96.60;;;;;;5073310;28;20056;-70
2023/06/27 04:36:28;;;;;;;5.30;1.75;;;15.10;96.60;;;;;;5067802;28;20047;-70
2023/06/27 04:38:54;;;;;;;3.33;1.58;;;15.10;96.70;;;;;;5067698;28;20136;-70
2023/06/27 04:41:20;;;;;;;3.97;1.52;;;15.20;96.80;;;;;;5067195;28;20590;-70
2023/06/27 04:43:46;;;;;;;3.20;1.45;;;15.20;96.90;;;;;;5079602;28;20131;-70
2023/06/27 04:46:11;;;;;;;4.10;1.77;;;15.20;96.90;;;;;;5063239;28;20517;-70
2023/06/27 04:48:37;;;;;;;4.32;1.75;;;15.30;97.00;;;;;;5077307;28;20041;-70
2023/06/27 04:51:03;;;;;;;4.32;1.48;;;15.30;97.10;;;;;;5076617;28;20047;-70
2023/06/27 04:53:30;;;;;;;4.55;1.42;;;15.30;97.30;;;;;;5064770;28;20131;-70
2023/06/27 04:55:55;;;;;;;6.32;1.63;;;15.30;97.30;;;;;;5071955;28;20533;-71
2023/06/27 04:58:21;;;;;;;5.10;2.22;;;15.30;97.50;;;;;;5067062;28;20036;-71
2023/06/27 05:00:47;;;;;;;3.08;1.55;;;15.40;97.60;;;;;;5048716;28;20077;-71
2023/06/27 05:03:17;;;;;;;3.03;1.30;;;15.40;97.70;;;;;;5059986;28;20033;-71
2023/06/27 05:05:43;;;;;;;3.40;1.60;;;15.50;97.70;;;;;;5069551;28;20109;-71
2023/06/27 05:08:09;;;;;;;5.45;1.42;;;15.50;97.80;;;;;;5087310;28;20033;-71
2023/06/27 05:10:35;;;;;;;3.47;1.30;;;15.50;97.80;;;;;;5064319;28;20462;-71
2023/06/27 05:13:01;;;;;;;4.05;1.40;;;15.60;97.90;;;;;;5074046;28;20569;-71
2023/06/27 05:15:27;;;;;;;4.03;1.20;;;15.60;98.00;;;;;;5073545;28;20382;-71
2023/06/27 05:17:54;;;;;;;4.72;1.75;;;15.60;98.10;;;;;;5065619;28;20155;-71
2023/06/27 05:20:21;;;;;;;5.40;1.30;;;15.70;98.10;;;;;;5076384;28;20036;-71
2023/06/27 05:22:47;;;;;;;4.05;1.23;;;15.70;98.20;;;;;;5064608;28;20082;-71
2023/06/27 05:25:13;;;;;;;2.90;1.48;;;15.70;98.20;;;;;;5067242;28;20076;-71
2023/06/27 05:27:38;;;;;;;3.65;1.27;;;15.70;98.30;;;;;;5064441;28;20457;-72
2023/06/27 05:30:05;;;;;;;3.50;1.38;;;15.80;98.40;;;;;;5062713;28;20520;-71
2023/06/27 05:32:30;;;;;;;3.78;1.50;;;15.80;98.40;;;;;;5064344;28;20059;-71
2023/06/27 05:34:56;;;;;;;6.65;1.20;;;15.80;98.50;;;;;;5045089;28;20486;-71
2023/06/27 05:37:22;;;;;;;2.78;1.40;;;15.90;98.60;;;;;;5066694;28;20123;-71
2023/06/27 05:39:47;;;;;;;3.38;1.42;;;15.90;98.60;;;;;;5068548;28;20032;-71
2023/06/27 05:42:13;;;;;;;5.40;1.48;;;15.90;98.60;;;;;;5069619;28;20444;-71
2023/06/27 05:44:38;;;;;;;8.38;2.10;;;16.00;98.60;;;;;;5061081;28;20033;-71
2023/06/27 05:47:05;;;;;;;3.17;1.02;;;16.00;98.70;;;;;;5068972;28;20126;-71
2023/06/27 05:49:30;;;;;;;5.25;1.23;;;16.10;98.70;;;;;;5071307;28;20028;-71
2023/06/27 05:51:56;;;;;;;6.10;1.33;;;16.10;99.00;;;;;;5063891;28;20097;-71
2023/06/27 05:54:22;;;;;;;3.33;1.48;;;16.20;98.70;;;;;;5065319;28;20375;-71
2023/06/27 05:56:47;;;;;;;5.85;1.33;;;16.20;98.80;;;;;;5068521;28;20512;-72
2023/06/27 05:59:13;;;;;;;2.55;1.13;;;16.30;98.80;;;;;;5080904;28;20075;-72
2023/06/27 06:01:39;;;;;;;5.68;1.27;;;16.20;98.80;;;;;;5065835;28;20093;-72
2023/06/27 06:04:04;;;;;;;3.53;1.17;;;16.30;98.80;;;;;;5073108;28;20520;-71
2023/06/27 06:06:33;;;;;;;2.65;1.13;;;16.30;98.80;;;;;;5065592;28;20043;-71
2023/06/27 06:08:59;;;;;;;4.70;1.20;;;16.40;98.70;;;;;;5066114;28;20039;-71
2023/06/27 06:11:25;;;;;;;2.25;1.10;;;16.40;98.70;;;;;;5063438;28;20517;-70
2023/06/27 06:13:50;;;;;;;3.30;1.00;;;16.50;98.70;;;;;;5065801;28;20036;-70
2023/06/27 06:16:16;;;;;;;3.15;1.10;;;16.50;98.70;;;;;;5063052;28;20035;-70
2023/06/27 06:18:41;;;;;;;2.63;1.08;;;16.50;98.70;;;;;;5068537;28;20037;-67
2023/06/27 06:21:07;;;;;;;5.53;1.42;;;16.60;98.70;;;;;;5065742;28;20043;-70
2023/06/27 06:23:33;;;;;;;2.08;1.10;;;16.70;98.80;;;;;;5062346;28;20044;-70
2023/06/27 06:25:58;;;;;;;3.08;0.98;;;16.70;98.70;;;;;;5067914;28;20043;-70
2023/06/27 06:28:24;;;;;;;2.15;0.90;;;16.80;98.60;;;;;;5065478;28;20040;-71
2023/06/27 06:30:50;;;;;;;6.85;0.82;;;16.80;98.60;;;;;;5071085;28;20032;-71
2023/06/27 06:33:15;;;;;;;3.22;1.02;;;16.90;98.50;;;;;;5067991;28;20577;-71
2023/06/27 06:35:41;;;;;;;1.58;0.80;;;17.00;98.40;;;;;;5062950;28;20032;-70
2023/06/27 06:38:07;;;;;;;4.53;0.82;;;17.40;98.40;;;;;;5056846;28;20060;-71
2023/06/27 06:40:32;;;;;;;2.25;1.33;;;18.40;97.70;;;;;;5067533;28;20451;-71
2023/06/27 06:42:58;;;;;;;1.85;0.65;;;19.70;96.30;;;;;;5059984;28;20048;-71
2023/06/27 06:45:23;;;;;;;2.05;0.65;;;20.80;94.40;;;;;;5048673;28;20036;-72
2023/06/27 06:47:49;;;;;;;1.77;0.90;;;21.70;92.60;;;;;;5055796;28;20242;-72
2023/06/27 06:50:14;;;;;;;2.33;0.55;;;22.50;91.40;;;;;;5081744;28;20036;-72
2023/06/27 06:52:40;;;;;;;1.05;0.50;;;23.00;90.10;;;;;;5071218;28;20036;-73
2023/06/27 06:55:07;;;;;;;1.02;0.50;;;23.10;88.00;;;;;;5070781;28;20040;-72
2023/06/27 06:57:32;;;;;;;1.45;0.50;;;22.70;88.30;;;;;;5068793;28;20036;-72
2023/06/27 06:59:58;;;;;;;0.50;0.32;;;22.10;89.20;;;;;;5076740;28;20043;-72
2023/06/27 07:02:23;;;;;;;2.58;0.40;;;21.60;89.60;;;;;;5077868;28;20067;-72
2023/06/27 07:04:49;;;;;;;1.83;0.47;;;21.30;90.20;;;;;;5069489;28;20068;-72
2023/06/27 07:07:14;;;;;;;1.38;0.52;;;21.00;90.50;;;;;;5073889;28;20043;-72
2023/06/27 07:09:40;;;;;;;1.35;0.38;;;20.70;90.80;;;;;;5068723;28;20039;-72
2023/06/27 07:12:06;;;;;;;1.85;0.40;;;20.50;90.30;;;;;;5074181;28;20071;-72
2023/06/27 07:14:31;;;;;;;0.73;0.20;;;20.40;90.30;;;;;;5053925;28;20036;-72
2023/06/27 07:16:57;;;;;;;2.15;0.57;;;20.30;90.10;;;;;;5076487;28;20033;-72
2023/06/27 07:19:22;;;;;;;0.88;0.30;;;20.10;89.70;;;;;;5064835;28;20517;-72
2023/06/27 07:21:48;;;;;;;1.13;0.40;;;20.00;88.50;;;;;;5065831;28;20036;-72
2023/06/27 07:24:14;;;;;;;1.55;0.35;;;19.90;88.00;;;;;;5072109;28;20951;-71
2023/06/27 07:26:39;;;;;;;5.47;0.40;;;19.80;88.20;;;;;;5078140;28;20546;-73
2023/06/27 07:29:05;;;;;;;1.10;0.32;;;19.70;87.30;;;;;;5073443;28;20119;-71
2023/06/27 07:31:30;;;;;;;1.50;0.52;;;19.70;87.20;;;;;;5075320;28;20037;-72
2023/06/27 07:33:56;;;;;;;3.38;0.50;;;19.60;86.60;;;;;;5052483;28;20503;-72
2023/06/27 07:36:22;;;;;;;2.63;0.40;;;19.50;86.10;;;;;;5062973;28;20186;-72
2023/06/27 07:38:47;;;;;;;1.50;0.30;;;19.50;86.10;;;;;;5046182;28;20040;-72
2023/06/27 07:41:13;;;;;;;1.42;0.50;;;19.40;85.80;;;;;;5071760;28;20120;-72
2023/06/27 07:43:38;;;;;;;0.57;0.22;;;19.50;85.70;;;;;;5063506;28;20479;-72
2023/06/27 07:46:04;;;;;;;2.10;0.30;;;19.50;85.30;;;;;;5062785;28;20032;-72
2023/06/27 07:48:30;;;;;;;1.35;0.38;;;19.50;85.30;;;;;;5064436;28;20044;-72
2023/06/27 07:50:55;;;;;;;1.90;0.40;;;19.50;85.20;;;;;;5064822;28;20395;-72
2023/06/27 07:53:21;;;;;;;2.30;0.43;;;19.60;84.30;;;;;;5077541;28;20105;-72
2023/06/27 07:55:46;;;;;;;1.02;0.30;;;19.60;84.10;;;;;;5077747;28;20146;-72
2023/06/27 07:58:12;;;;;;;4.82;0.68;;;19.60;83.40;;;;;;5083126;28;20036;-72
2023/06/27 08:00:38;;;;;;;1.35;0.40;;;19.50;83.20;;;;;;5066788;28;20041;-72
2023/06/27 08:03:04;;;;;;;0.93;0.35;;;19.70;83.60;;;;;;5070175;28;20109;-72
2023/06/27 08:05:34;;;;;;;3.70;0.50;;;19.70;83.10;;;;;;5060758;28;20036;-72
2023/06/27 08:08:01;;;;;;;1.05;0.40;;;19.70;82.30;;;;;;5063490;28;20096;-72
2023/06/27 08:10:28;;;;;;;0.90;0.28;;;19.80;81.80;;;;;;5052318;28;20417;-71
2023/06/27 08:12:54;;;;;;;1.23;0.38;;;19.70;81.70;;;;;;5075758;28;20044;-73
2023/06/27 08:15:19;;;;;;;0.50;0.20;;;19.70;81.10;;;;;;5047890;28;20073;-73
2023/06/27 08:17:45;;;;;;;1.27;0.50;;;19.70;80.80;;;;;;5068233;28;20393;-73
2023/06/27 08:20:11;;;;;;;0.60;0.30;;;19.70;80.70;;;;;;5061972;28;20044;-73
2023/06/27 08:22:36;;;;;;;3.47;0.40;;;19.60;80.20;;;;;;5064034;28;20055;-73
2023/06/27 08:25:02;;;;;;;2.75;0.22;;;19.60;80.10;;;;;;5067166;28;20061;-73
2023/06/27 08:27:28;;;;;;;1.55;0.20;;;19.50;79.90;;;;;;5066852;28;20041;-73
2023/06/27 08:29:53;;;;;;;3.75;0.40;;;19.50;80.10;;;;;;5076014;28;20748;-71
2023/06/27 08:32:19;;;;;;;1.13;0.32;;;19.50;79.80;;;;;;5061296;28;20136;-73
2023/06/27 08:34:45;;;;;;;2.83;0.50;;;19.50;79.70;;;;;;5063731;28;20041;-73
2023/06/27 08:37:11;;;;;;;3.03;0.35;;;19.50;79.50;;;;;;5057196;28;20139;-72
2023/06/27 08:39:36;;;;;;;1.38;0.28;;;19.60;80.10;;;;;;5063099;28;20052;-72
2023/06/27 08:42:03;;;;;;;0.88;0.40;;;19.60;78.80;;;;;;5070065;28;20131;-73
2023/06/27 08:44:28;;;;;;;2.53;0.50;;;19.70;78.20;;;;;;5070896;28;20135;-72
2023/06/27 08:46:58;;;;;;;1.55;0.43;;;19.80;78.00;;;;;;5052473;28;20147;-73
2023/06/27 08:49:26;;;;;;;2.60;0.30;;;19.80;77.60;;;;;;5050950;28;20043;-73
2023/06/27 08:51:56;;;;;;;2.10;0.30;;;19.90;76.70;;;;;;5062921;28;20032;-73
2023/06/27 08:54:37;;;;;;;1.90;0.20;;;19.90;76.10;;;;;;5072757;28;20086;-72
2023/06/27 08:57:04;;;;;;;4.82;0.55;;;20.00;76.50;;;;;;5079723;28;20098;-72
2023/06/27 08:59:34;;;;;;;2.25;0.30;;;20.10;76.90;;;;;;5064940;28;20040;-72
2023/06/27 09:02:01;;;;;;;1.05;0.20;;;20.20;76.10;;;;;;5062796;28;20044;-73
2023/06/27 09:04:27;;;;;;;0.90;0.40;;;20.20;75.60;;;;;;5063390;28;20119;-73
2023/06/27 09:06:54;;;;;;;0.70;0.20;;;20.30;74.40;;;;;;5059304;28;20049;-73
2023/06/27 09:09:21;;;;;;;1.52;0.43;;;20.20;73.70;;;;;;5053148;28;20063;-73
2023/06/27 09:11:50;;;;;;;2.08;0.30;;;20.30;73.90;;;;;;5069712;28;20075;-73
2023/06/27 09:14:15;;;;;;;1.40;0.30;;;20.20;73.60;;;;;;5068155;28;20032;-74
2023/06/27 09:16:41;;;;;;;0.90;0.20;;;20.30;73.10;;;;;;5040955;28;20065;-73
2023/06/27 09:19:07;;;;;;;2.13;0.40;;;20.20;72.30;;;;;;5071306;28;20059;-73
2023/06/27 09:21:34;;;;;;;1.75;0.30;;;20.10;71.40;;;;;;5042582;28;20048;-74
2023/06/27 09:24:07;;;;;;;0.65;0.32;;;20.10;71.30;;;;;;5054714;28;20032;-73
2023/06/27 09:26:33;;;;;;;2.83;0.30;;;20.10;70.70;;;;;;5060213;28;20056;-73
2023/06/27 09:29:01;;;;;;;2.47;0.40;;;20.20;71.50;;;;;;5060070;28;20233;-73
2023/06/27 09:31:28;;;;;;;1.50;0.30;;;20.30;70.60;;;;;;5069853;28;20414;-74
2023/06/27 09:34:08;;;;;;;1.75;0.38;;;20.20;70.00;;;;;;5067594;28;20064;-73
2023/06/27 09:36:41;;;;;;;2.17;0.22;;;20.20;68.60;;;;;;5057142;28;20102;-73
2023/06/27 09:39:09;;;;;;;2.50;0.55;;;20.20;69.70;;;;;;5054565;28;20151;-73
2023/06/27 09:41:49;;;;;;;1.30;0.40;;;20.20;69.50;;;;;;5070001;28;20553;-73
2023/06/27 09:44:19;;;;;;;0.38;0.22;;;20.20;69.30;;;;;;5059264;28;20374;-73
2023/06/27 09:46:47;;;;;;;0.68;0.30;;;20.20;70.40;;;;;;5066068;28;20466;-73
2023/06/27 09:49:13;;;;;;;2.05;0.25;;;20.30;69.90;;;;;;5057526;28;21061;-73
2023/06/27 09:51:38;;;;;;;3.78;0.43;;;20.30;70.10;;;;;;5057510;28;20064;-72
2023/06/27 09:54:05;;;;;;;2.13;0.25;;;20.30;70.30;;;;;;5068985;28;20032;-73
2023/06/27 09:56:32;;;;;;;2.25;0.30;;;20.20;70.40;;;;;;5059417;28;20103;-73
2023/06/27 09:59:09;;;;;;;3.13;1.00;;;20.30;70.80;;;;;;5070937;28;20036;-72
2023/06/27 10:01:37;;;;;;;1.33;0.30;;;20.40;70.90;;;;;;5052519;28;20036;-72
2023/06/27 10:04:03;;;;;;;2.13;0.35;;;20.40;71.50;;;;;;5039723;28;20032;-73
2023/06/27 10:06:29;;;;;;;1.80;0.30;;;20.40;71.40;;;;;;5055858;28;20551;-74
2023/06/27 10:08:56;;;;;;;1.67;0.30;;;20.50;71.20;;;;;;5069460;28;20040;-73
2023/06/27 10:11:22;;;;;;;2.78;0.30;;;20.60;70.90;;;;;;5061476;28;20580;-73
2023/06/27 10:13:49;;;;;;;2.50;0.50;;;20.70;71.00;;;;;;5037080;28;20559;-72
2023/06/27 10:16:16;;;;;;;1.35;0.30;;;20.80;71.20;;;;;;5062283;28;20120;-72
2023/06/27 10:18:42;;;;;;;1.55;0.38;;;20.90;71.80;;;;;;5059154;28;20442;-73
2023/06/27 10:21:08;;;;;;;1.02;0.43;;;21.00;71.90;;;;;;5073595;28;20032;-72
2023/06/27 10:23:35;;;;;;;1.48;0.20;;;21.00;71.40;;;;;;5074147;28;20513;-73
2023/06/27 10:26:01;;;;;;;0.70;0.30;;;20.90;70.70;;;;;;5075575;28;20101;-72
2023/06/27 10:28:30;;;;;;;3.38;0.50;;;20.90;71.10;;;;;;5042115;28;20116;-72
2023/06/27 10:30:56;;;;;;;2.13;0.45;;;20.80;71.50;;;;;;5060214;28;20040;-73
2023/06/27 10:33:31;;;;;;;0.25;0.13;;;20.90;72.00;;;;;;5058683;28;20048;-73
2023/06/27 10:36:01;;;;;;;2.58;0.47;;;20.90;72.30;;;;;;5063711;28;20048;-73
2023/06/27 10:38:40;;;;;;;0.77;0.30;;;20.90;72.80;;;;;;5063481;28;20074;-73
2023/06/27 10:41:10;;;;;;;3.63;0.45;;;21.00;72.40;;;;;;5060954;28;20035;-73
2023/06/27 10:43:39;;;;;;;0.75;0.30;;;21.10;72.40;;;;;;5062116;28;20473;-73
2023/06/27 10:46:10;;;;;;;3.03;0.60;;;21.10;72.40;;;;;;5063192;28;20077;-71
2023/06/27 10:48:58;;;;;;;3.45;0.40;;;21.10;71.90;;;;;;5057841;28;20050;-73
2023/06/27 10:51:35;;;;;;;0.43;0.30;;;21.10;71.40;;;;;;5055655;28;20051;-73
2023/06/27 10:54:07;;;;;;;1.63;0.30;;;21.00;70.90;;;;;;5078660;28;20131;-73
2023/06/27 10:56:41;;;;;;;1.95;0.30;;;20.90;70.10;;;;;;5064845;28;20091;-73
2023/06/27 10:59:18;;;;;;;3.88;0.75;;;21.10;70.70;;;;;;5056304;28;20037;-73
2023/06/27 11:01:58;;;;;;;0.95;0.30;;;21.10;70.00;;;;;;5060149;28;20447;-74
2023/06/27 11:04:39;;;;;;;1.77;0.35;;;21.10;68.70;;;;;;5072832;28;20041;-73
2023/06/27 11:07:12;;;;;;;2.22;0.40;;;21.10;69.80;;;;;;5057585;28;20040;-73
2023/06/27 11:09:37;;;;;;;1.70;0.30;;;21.10;69.20;;;;;;5060834;28;20048;-74
2023/06/27 11:12:17;;;;;;;0.50;0.20;;;21.10;68.80;;;;;;5057014;28;20052;-73
2023/06/27 11:14:48;;;;;;;3.25;0.35;;;21.10;68.70;;;;;;5059326;28;20044;-73
2023/06/27 11:17:16;;;;;;;2.40;0.40;;;21.20;68.70;;;;;;5062486;28;20132;-73
2023/06/27 11:19:42;;;;;;;1.20;0.60;;;21.20;68.40;;;;;;5073781;28;20040;-73
2023/06/27 11:22:08;;;;;;;1.92;0.35;;;21.30;67.70;;;;;;5066498;28;20372;-74
2023/06/27 11:24:35;;;;;;;1.35;0.43;;;21.40;67.40;;;;;;5062896;28;20051;-73
2023/06/27 11:27:05;;;;;;;1.92;0.32;;;21.50;67.20;;;;;;5066919;28;20097;-73
2023/06/27 11:29:31;;;;;;;1.45;0.20;;;21.60;67.30;;;;;;5055805;28;20045;-73
2023/06/27 11:31:56;;;;;;;2.00;0.40;;;21.70;66.40;;;;;;5065727;28;20251;-73
2023/06/27 11:34:22;;;;;;;2.45;0.30;;;21.70;66.10;;;;;;5057543;28;20398;-73
2023/06/27 11:36:48;;;;;;;2.55;0.32;;;21.60;66.10;;;;;;5041916;28;20120;-73
2023/06/27 11:39:15;;;;;;;2.25;0.50;;;21.60;66.50;;;;;;5074822;28;20029;-73
2023/06/27 11:41:44;;;;;;;2.45;0.40;;;21.60;66.70;;;;;;5054319;28;20505;-73
2023/06/27 11:44:15;;;;;;;3.88;0.57;;;21.60;66.30;;;;;;5073928;28;20525;-73
2023/06/27 11:46:51;;;;;;;1.58;0.30;;;21.70;66.40;;;;;;5071301;28;20187;-73
2023/06/27 11:49:21;;;;;;;2.45;0.32;;;21.60;64.00;;;;;;5056107;28;20113;-70
2023/06/27 11:51:47;;;;;;;1.58;0.40;;;21.50;66.10;;;;;;5051841;28;20049;-73
2023/06/27 11:54:16;;;;;;;2.33;0.40;;;21.50;66.00;;;;;;5056390;28;20035;-73
2023/06/27 11:56:42;;;;;;;3.10;0.50;;;21.40;65.80;;;;;;5073009;28;20115;-73
2023/06/27 11:59:08;;;;;;;1.48;0.43;;;21.40;66.20;;;;;;5068248;28;20036;-72
2023/06/27 12:01:44;;;;;;;3.58;0.47;;;21.40;66.70;;;;;;5054927;28;20514;-73
2023/06/27 12:04:15;;;;;;;0.95;0.40;;;21.40;66.80;;;;;;5068392;28;20486;-73
2023/06/27 12:06:42;;;;;;;1.75;0.40;;;21.40;67.30;;;;;;5042724;28;20128;-73
2023/06/27 12:09:18;;;;;;;0.85;0.30;;;21.50;67.30;;;;;;5057709;28;20032;-73
2023/06/27 12:11:43;;;;;;;2.65;0.40;;;21.50;67.40;;;;;;5057203;28;20079;-73
2023/06/27 12:14:09;;;;;;;3.85;0.50;;;21.40;67.80;;;;;;5045351;28;20070;-73
2023/06/27 12:16:35;;;;;;;1.52;0.38;;;21.40;67.50;;;;;;5068077;28;20040;-73
2023/06/27 12:19:10;;;;;;;2.53;0.55;;;21.40;67.20;;;;;;5060550;28;20121;-73
2023/06/27 12:21:36;;;;;;;;;;;21.30;66.50;;;;;;5056974;28;20625;-77
2023/06/27 12:24:03;;;;;;;1.75;0.40;;;21.30;66.20;;;;;;5053746;28;20346;-73
2023/06/27 12:26:28;;;;;;;1.60;0.40;;;21.20;67.30;;;;;;5071231;28;20052;-73
2023/06/27 12:29:02;;;;;;;2.45;0.40;;;21.20;67.30;;;;;;5035789;28;20113;-69
2023/06/27 12:31:28;;;;;;;3.20;0.47;;;21.20;67.10;;;;;;5052076;28;20120;-72
2023/06/27 12:33:54;;;;;;;4.40;0.65;;;21.10;67.20;;;;;;5056787;28;20039;-71
2023/06/27 12:36:21;;;;;;;3.53;0.50;;;21.10;67.20;;;;;;5042614;28;20039;-72
2023/06/27 12:38:49;;;;;;;1.38;0.55;;;21.10;67.50;;;;;;5063097;28;20062;-72
2023/06/27 12:41:17;;;;;;;0.57;0.30;;;21.10;67.40;;;;;;5071481;28;20079;-72
2023/06/27 12:43:43;;;;;;;0.75;0.17;;;21.10;67.20;;;;;;5067795;28;20043;-72
2023/06/27 12:46:09;;;;;;;2.15;0.30;;;21.00;67.20;;;;;;5067124;28;20127;-72
2023/06/27 12:48:34;;;;;;;0.82;0.30;;;21.00;66.70;;;;;;5060334;28;20236;-72